Time;durP1;ratioP1;P1;durP2;ratioP2;P2;SDS_P1;SDS_P2;PMS_P1;PMS_P2;Temp;Humidity;BMP_temperature;BMP_pressure;BME280_temperature;BME280_humidity;BME280_pressure;Samples;Min_cycle;Max_cycle;Signal;HPM_P1;HPM_P2
2024/03/11 00:00:08;;;;;;;25.13;16.80;;;7.90;99.90;;;;;;5071309;28;20051;-52
2024/03/11 00:02:37;;;;;;;24.73;16.98;;;7.90;99.90;;;;;;5070813;28;20040;-48
2024/03/11 00:05:06;;;;;;;23.63;16.45;;;7.90;99.90;;;;;;5073858;28;20085;-51
2024/03/11 00:07:37;;;;;;;26.35;16.73;;;7.90;99.90;;;;;;5073304;28;20067;-50
2024/03/11 00:10:11;;;;;;;27.13;17.90;;;7.90;99.90;;;;;;5073278;28;20428;-51
2024/03/11 00:12:49;;;;;;;23.92;16.52;;;8.00;99.90;;;;;;5072625;28;20290;-54
2024/03/11 00:15:16;;;;;;;24.75;16.83;;;8.00;99.90;;;;;;5072186;28;20113;-49
2024/03/11 00:17:43;;;;;;;24.88;17.88;;;8.00;99.90;;;;;;5072356;28;20497;-48
2024/03/11 00:20:11;;;;;;;23.30;16.33;;;8.10;99.90;;;;;;5073706;28;20320;-48
2024/03/11 00:22:38;;;;;;;24.80;17.63;;;8.10;99.90;;;;;;5073298;28;20070;-48
2024/03/11 00:25:06;;;;;;;22.48;15.68;;;8.00;99.90;;;;;;5073159;28;20066;-49
2024/03/11 00:27:36;;;;;;;18.67;13.27;;;8.10;99.90;;;;;;5072295;28;20412;-47
2024/03/11 00:30:11;;;;;;;19.13;12.60;;;8.10;99.90;;;;;;5071768;28;20416;-46
2024/03/11 00:32:44;;;;;;;17.95;12.02;;;8.10;99.90;;;;;;5069162;28;20056;-47
2024/03/11 00:35:14;;;;;;;16.17;11.40;;;8.10;99.90;;;;;;5072953;28;20044;-54
2024/03/11 00:37:41;;;;;;;17.30;11.65;;;8.10;99.90;;;;;;5070367;28;20071;-47
2024/03/11 00:40:09;;;;;;;15.48;11.10;;;8.10;99.90;;;;;;5073408;28;20401;-54
2024/03/11 00:42:39;;;;;;;14.10;9.93;;;8.10;99.90;;;;;;5067372;28;20548;-51
2024/03/11 00:45:11;;;;;;;15.60;10.38;;;8.10;99.90;;;;;;5071383;28;20148;-50
2024/03/11 00:47:41;;;;;;;14.65;10.13;;;8.00;99.90;;;;;;5071362;28;20048;-52
2024/03/11 00:50:11;;;;;;;;;;;8.00;99.90;;;;;;5070934;28;20440;-48
2024/03/11 00:52:41;;;;;;;12.18;8.80;;;8.00;99.90;;;;;;5071837;28;19921;-48
2024/03/11 00:55:09;;;;;;;14.27;10.27;;;7.90;99.90;;;;;;5069034;28;20147;-53
2024/03/11 00:57:37;;;;;;;11.90;8.52;;;7.90;99.90;;;;;;5065514;28;20060;-55
2024/03/11 01:00:08;;;;;;;10.63;7.85;;;7.90;99.90;;;;;;5071031;28;20131;-52
2024/03/11 01:02:35;;;;;;;12.43;8.10;;;7.80;99.90;;;;;;5072113;28;20093;-50
2024/03/11 01:05:03;;;;;;;10.80;7.25;;;7.90;99.90;;;;;;5072208;28;20040;-52
2024/03/11 01:07:32;;;;;;;10.18;7.13;;;7.90;99.90;;;;;;5069877;28;20037;-52
2024/03/11 01:10:15;;;;;;;9.83;7.20;;;7.80;99.90;;;;;;5066862;28;20413;-50
2024/03/11 01:12:44;;;;;;;9.65;6.80;;;7.80;99.90;;;;;;5069355;28;20040;-48
2024/03/11 01:15:11;;;;;;;12.25;7.35;;;7.80;99.90;;;;;;5066995;28;20044;-50
2024/03/11 01:17:39;;;;;;;9.88;7.35;;;7.70;99.90;;;;;;5066604;28;20522;-54
2024/03/11 01:20:15;;;;;;;9.85;6.93;;;7.70;99.90;;;;;;5072659;28;20535;-52
2024/03/11 01:22:42;;;;;;;10.35;6.63;;;7.70;99.90;;;;;;5070918;28;20068;-50
2024/03/11 01:25:09;;;;;;;9.25;6.25;;;7.80;99.90;;;;;;5065330;28;20566;-50
2024/03/11 01:27:38;;;;;;;8.70;6.32;;;7.80;99.90;;;;;;5071493;28;20554;-48
2024/03/11 01:30:07;;;;;;;10.27;6.85;;;7.80;99.90;;;;;;5074730;28;20047;-48
2024/03/11 01:32:37;;;;;;;10.35;7.40;;;7.70;99.90;;;;;;5069588;28;20040;-49
2024/03/11 01:35:06;;;;;;;8.90;6.82;;;7.70;99.90;;;;;;5070408;28;20043;-52
2024/03/11 01:37:36;;;;;;;9.60;6.80;;;7.70;99.90;;;;;;5066949;28;20058;-53
2024/03/11 01:40:03;;;;;;;7.88;6.35;;;7.70;99.90;;;;;;5073609;28;20129;-49
2024/03/11 01:42:30;;;;;;;9.07;6.47;;;7.70;99.90;;;;;;5070110;28;20048;-51
2024/03/11 01:44:57;;;;;;;9.93;6.80;;;7.70;99.90;;;;;;5071431;28;20040;-47
2024/03/11 01:47:25;;;;;;;9.80;6.72;;;7.70;99.90;;;;;;5070876;28;20496;-55
2024/03/11 01:49:54;;;;;;;8.75;6.32;;;7.70;99.90;;;;;;5070413;28;20045;-48
2024/03/11 01:52:26;;;;;;;8.70;5.93;;;7.70;99.90;;;;;;5069496;28;20594;-50
2024/03/11 01:54:55;;;;;;;7.53;5.20;;;7.70;99.90;;;;;;5075570;28;20139;-52
2024/03/11 01:57:24;;;;;;;8.20;5.55;;;7.60;99.90;;;;;;5068964;28;20777;-48
2024/03/11 01:59:52;;;;;;;10.07;5.85;;;7.60;99.90;;;;;;5070528;28;21153;-51
2024/03/11 02:02:23;;;;;;;7.93;5.53;;;7.60;99.90;;;;;;5069966;28;20045;-53
2024/03/11 02:04:51;;;;;;;;;;;7.50;99.90;;;;;;5070103;28;20041;-50
2024/03/11 02:07:20;;;;;;;6.47;4.63;;;7.50;99.90;;;;;;5068000;28;20035;-47
2024/03/11 02:09:47;;;;;;;6.25;4.68;;;7.30;99.90;;;;;;5069503;28;20131;-48
2024/03/11 02:12:17;;;;;;;7.30;4.85;;;7.30;99.90;;;;;;5071434;28;20122;-47
2024/03/11 02:14:46;;;;;;;6.80;4.72;;;7.30;99.90;;;;;;5069571;28;20064;-55
2024/03/11 02:17:15;;;;;;;5.35;4.13;;;7.30;99.90;;;;;;5070665;28;20089;-57
2024/03/11 02:19:47;;;;;;;5.47;4.00;;;7.20;99.90;;;;;;5072185;28;20059;-52
2024/03/11 02:22:14;;;;;;;5.70;4.10;;;7.20;99.90;;;;;;5071633;28;20040;-51
2024/03/11 02:24:41;;;;;;;6.45;4.55;;;7.20;99.90;;;;;;5067540;28;20049;-51
2024/03/11 02:27:08;;;;;;;5.82;4.15;;;7.20;99.90;;;;;;5071966;28;20044;-51
2024/03/11 02:29:37;;;;;;;5.97;4.18;;;7.20;99.90;;;;;;5071703;28;20036;-55
2024/03/11 02:32:04;;;;;;;5.90;4.63;;;7.20;99.90;;;;;;5065648;28;20048;-51
2024/03/11 02:34:33;;;;;;;7.63;4.20;;;7.20;99.90;;;;;;5070250;28;20366;-49
2024/03/11 02:37:01;;;;;;;6.13;4.13;;;7.20;99.90;;;;;;5070078;28;20603;-48
2024/03/11 02:39:29;;;;;;;7.22;4.10;;;7.20;99.90;;;;;;5071882;28;20037;-49
2024/03/11 02:41:56;;;;;;;5.80;4.00;;;7.20;99.90;;;;;;5072510;28;20136;-54
2024/03/11 02:44:23;;;;;;;4.32;3.45;;;7.20;99.90;;;;;;5071711;28;20048;-50
2024/03/11 02:46:51;;;;;;;4.40;3.22;;;7.20;99.90;;;;;;5072271;28;20044;-52
2024/03/11 02:49:18;;;;;;;4.43;3.40;;;7.20;99.90;;;;;;5069214;28;20072;-51
2024/03/11 02:51:45;;;;;;;4.78;3.17;;;7.20;99.90;;;;;;5070249;28;20506;-48
2024/03/11 02:54:14;;;;;;;4.93;3.47;;;7.20;99.90;;;;;;5070598;28;20121;-50
2024/03/11 02:56:41;;;;;;;4.93;3.30;;;7.10;99.90;;;;;;5067394;28;20068;-51
2024/03/11 02:59:09;;;;;;;4.32;2.72;;;7.10;99.90;;;;;;5066152;28;20048;-53
2024/03/11 03:01:37;;;;;;;4.40;2.92;;;7.00;99.90;;;;;;5069788;28;20045;-52
2024/03/11 03:04:05;;;;;;;4.18;2.78;;;7.00;99.90;;;;;;5069925;28;20036;-48
2024/03/11 03:06:33;;;;;;;4.25;2.92;;;6.90;99.90;;;;;;5069571;28;20495;-49
2024/03/11 03:09:00;;;;;;;5.55;3.20;;;6.90;99.90;;;;;;5071895;28;20063;-46
2024/03/11 03:11:27;;;;;;;4.32;3.15;;;6.90;99.90;;;;;;5065839;28;20068;-51
2024/03/11 03:13:54;;;;;;;4.80;3.47;;;7.00;99.90;;;;;;5073817;28;20532;-48
2024/03/11 03:16:21;;;;;;;4.75;3.15;;;7.00;99.90;;;;;;5065106;28;20051;-51
2024/03/11 03:18:48;;;;;;;5.22;3.20;;;7.00;99.90;;;;;;5074308;28;20052;-45
2024/03/11 03:21:15;;;;;;;4.80;3.25;;;7.10;99.90;;;;;;5075796;28;20451;-53
2024/03/11 03:23:42;;;;;;;4.57;3.38;;;7.20;99.90;;;;;;5073446;28;20571;-48
2024/03/11 03:26:09;;;;;;;4.78;3.25;;;7.30;99.90;;;;;;5074594;28;20135;-51
2024/03/11 03:28:37;;;;;;;4.78;3.20;;;7.30;99.90;;;;;;5075538;28;20052;-55
2024/03/11 03:31:05;;;;;;;5.05;3.65;;;7.30;99.90;;;;;;5072305;28;20043;-48
2024/03/11 03:33:32;;;;;;;6.90;3.58;;;7.30;99.90;;;;;;5074996;28;20044;-47
2024/03/11 03:35:59;;;;;;;5.53;3.75;;;7.30;99.90;;;;;;5075177;28;20155;-49
2024/03/11 03:38:26;;;;;;;5.22;3.42;;;7.40;99.90;;;;;;5072405;28;20075;-50
2024/03/11 03:40:53;;;;;;;4.60;3.45;;;7.40;99.90;;;;;;5074889;28;20094;-48
2024/03/11 03:43:20;;;;;;;5.72;3.80;;;7.40;99.90;;;;;;5078039;28;20512;-51
2024/03/11 03:45:48;;;;;;;5.65;3.78;;;7.40;99.90;;;;;;5074090;28;20049;-52
2024/03/11 03:48:15;;;;;;;5.50;3.60;;;7.30;99.90;;;;;;5078051;28;20459;-49
2024/03/11 03:50:43;;;;;;;4.78;3.80;;;7.20;99.90;;;;;;5072365;28;20033;-48
2024/03/11 03:53:10;;;;;;;5.65;3.95;;;7.20;99.90;;;;;;5076893;28;20537;-47
2024/03/11 03:55:37;;;;;;;4.80;3.58;;;7.30;99.90;;;;;;5077114;28;20180;-48
2024/03/11 03:58:05;;;;;;;5.15;3.67;;;7.40;99.90;;;;;;5071670;28;20114;-50
2024/03/11 04:00:34;;;;;;;5.15;3.53;;;7.30;99.90;;;;;;5072993;28;20131;-50
2024/03/11 04:03:03;;;;;;;5.28;4.18;;;7.30;99.90;;;;;;5073523;28;20063;-45
2024/03/11 04:05:30;;;;;;;6.65;4.18;;;7.30;99.90;;;;;;5074474;28;20036;-50
2024/03/11 04:07:58;;;;;;;5.65;4.32;;;7.30;99.90;;;;;;5068996;28;20049;-48
2024/03/11 04:10:26;;;;;;;5.53;4.03;;;7.30;99.90;;;;;;5072967;28;20029;-50
2024/03/11 04:12:55;;;;;;;5.20;4.18;;;7.30;99.90;;;;;;5071976;28;20100;-49
2024/03/11 04:15:23;;;;;;;6.40;3.92;;;7.20;99.90;;;;;;5068807;28;20045;-47
2024/03/11 04:17:53;;;;;;;6.57;3.83;;;7.20;99.90;;;;;;5075702;28;20048;-49
2024/03/11 04:20:27;;;;;;;7.28;4.03;;;7.10;99.90;;;;;;5065850;28;20040;-49
2024/03/11 04:22:55;;;;;;;5.10;3.78;;;7.00;99.90;;;;;;5074733;28;20631;-48
2024/03/11 04:25:27;;;;;;;7.20;4.60;;;6.90;99.90;;;;;;5073854;28;20067;-47
2024/03/11 04:27:55;;;;;;;5.20;4.25;;;6.90;99.90;;;;;;5071624;28;20431;-52
2024/03/11 04:30:30;;;;;;;7.28;4.20;;;6.80;99.90;;;;;;5072877;28;20059;-47
2024/03/11 04:32:58;;;;;;;5.57;4.13;;;6.70;99.90;;;;;;5071268;28;20527;-51
2024/03/11 04:35:28;;;;;;;5.97;4.30;;;6.70;99.90;;;;;;5075295;28;20037;-49
2024/03/11 04:38:00;;;;;;;5.68;4.47;;;6.60;99.90;;;;;;5064251;28;20086;-48
2024/03/11 04:40:29;;;;;;;4.88;3.78;;;6.50;99.90;;;;;;5071480;28;20040;-48
2024/03/11 04:42:56;;;;;;;6.43;4.80;;;6.50;99.90;;;;;;5072509;28;20813;-47
2024/03/11 04:45:26;;;;;;;8.20;4.75;;;6.40;99.90;;;;;;5071826;28;20037;-54
2024/03/11 04:47:54;;;;;;;6.30;4.47;;;6.40;99.90;;;;;;5073322;28;20086;-48
2024/03/11 04:50:24;;;;;;;5.53;4.20;;;6.30;99.90;;;;;;5068828;28;20048;-49
2024/03/11 04:53:00;;;;;;;5.90;4.20;;;6.30;99.90;;;;;;5075556;28;20291;-52
2024/03/11 04:55:28;;;;;;;6.53;4.47;;;6.40;99.90;;;;;;5074043;28;20528;-51
2024/03/11 04:57:56;;;;;;;6.68;4.72;;;6.30;99.90;;;;;;5069361;28;20174;-48
2024/03/11 05:00:28;;;;;;;6.53;4.30;;;6.30;99.90;;;;;;5072300;28;20502;-50
2024/03/11 05:02:59;;;;;;;;;;;6.30;99.90;;;;;;5072729;28;20114;-52
2024/03/11 05:05:27;;;;;;;5.43;3.60;;;6.30;99.90;;;;;;5072999;28;20003;-46
2024/03/11 05:07:54;;;;;;;7.13;4.75;;;6.40;99.90;;;;;;5074017;28;20552;-55
2024/03/11 05:10:22;;;;;;;6.18;4.45;;;6.40;99.90;;;;;;5074104;28;20060;-45
2024/03/11 05:12:49;;;;;;;6.05;4.28;;;6.30;99.90;;;;;;5067660;28;20184;-47
2024/03/11 05:15:17;;;;;;;6.78;4.22;;;6.30;99.90;;;;;;5073291;28;20109;-50
2024/03/11 05:17:44;;;;;;;5.90;4.32;;;6.20;99.90;;;;;;5073437;28;20048;-47
2024/03/11 05:20:14;;;;;;;6.47;4.53;;;6.20;99.90;;;;;;5070546;28;20136;-49
2024/03/11 05:22:42;;;;;;;7.75;4.20;;;6.20;99.90;;;;;;5073846;28;20064;-44
2024/03/11 05:25:17;;;;;;;7.95;4.38;;;6.10;99.90;;;;;;5074082;28;20488;-49
2024/03/11 05:27:46;;;;;;;5.60;4.30;;;6.00;99.90;;;;;;5067645;28;20534;-47
2024/03/11 05:30:15;;;;;;;8.50;4.60;;;6.00;99.90;;;;;;5076586;28;20475;-46
2024/03/11 05:32:42;;;;;;;6.90;4.95;;;5.90;99.90;;;;;;5069479;28;20473;-47
2024/03/11 05:35:09;;;;;;;6.60;4.75;;;5.90;99.90;;;;;;5076295;28;20436;-51
2024/03/11 05:37:36;;;;;;;9.25;6.07;;;5.80;99.90;;;;;;5064889;28;20059;-54
2024/03/11 05:40:05;;;;;;;7.80;5.30;;;5.80;99.90;;;;;;5075560;28;20081;-54
2024/03/11 05:42:33;;;;;;;9.63;5.90;;;5.80;99.90;;;;;;5072142;28;20032;-55
2024/03/11 05:45:02;;;;;;;9.90;6.38;;;5.70;99.90;;;;;;5071155;28;20546;-54
2024/03/11 05:47:29;;;;;;;13.82;5.57;;;5.70;99.90;;;;;;5072819;28;20125;-48
2024/03/11 05:49:56;;;;;;;7.68;5.35;;;5.70;99.90;;;;;;5066746;28;20443;-49
2024/03/11 05:52:26;;;;;;;9.40;5.93;;;5.60;99.90;;;;;;5068670;28;20479;-52
2024/03/11 05:54:53;;;;;;;7.60;5.20;;;5.60;99.90;;;;;;5072083;28;20064;-50
2024/03/11 05:57:29;;;;;;;7.22;5.38;;;5.60;99.90;;;;;;5068040;28;20044;-47
2024/03/11 05:59:57;;;;;;;9.40;5.63;;;5.60;99.90;;;;;;5068384;28;20060;-49
2024/03/11 06:02:24;;;;;;;10.75;5.53;;;5.60;99.90;;;;;;5066001;28;20035;-47
2024/03/11 06:04:51;;;;;;;6.82;5.07;;;5.60;99.90;;;;;;5072245;28;20398;-50
2024/03/11 06:07:25;;;;;;;9.23;6.05;;;5.70;99.90;;;;;;5067021;28;20127;-50
2024/03/11 06:09:52;;;;;;;11.52;6.57;;;5.80;99.90;;;;;;5074161;28;20049;-49
2024/03/11 06:12:20;;;;;;;8.90;5.93;;;5.80;99.90;;;;;;5070417;28;20048;-52
2024/03/11 06:14:48;;;;;;;11.35;5.93;;;5.80;99.90;;;;;;5071905;28;20040;-47
2024/03/11 06:17:15;;;;;;;8.65;5.15;;;5.80;99.90;;;;;;5074822;28;20040;-55
2024/03/11 06:19:44;;;;;;;8.15;5.53;;;5.80;99.90;;;;;;5069771;28;20118;-50
2024/03/11 06:22:15;;;;;;;6.95;5.05;;;5.90;99.90;;;;;;5075023;28;20044;-49
2024/03/11 06:24:43;;;;;;;8.07;5.53;;;5.90;99.90;;;;;;5062921;28;20086;-49
2024/03/11 06:27:11;;;;;;;8.73;5.88;;;5.80;99.90;;;;;;5072167;28;20055;-47
2024/03/11 06:29:38;;;;;;;8.82;5.28;;;5.90;99.90;;;;;;5072312;28;20497;-47
2024/03/11 06:32:07;;;;;;;7.25;5.25;;;5.90;99.90;;;;;;5072015;28;20044;-47
2024/03/11 06:34:34;;;;;;;9.10;5.43;;;5.90;99.90;;;;;;5072703;28;20041;-46
2024/03/11 06:37:02;;;;;;;8.73;5.40;;;5.90;99.90;;;;;;5069180;28;20048;-50
2024/03/11 06:39:31;;;;;;;9.30;6.18;;;6.00;99.90;;;;;;5071508;28;20082;-52
2024/03/11 06:42:00;;;;;;;6.95;5.43;;;6.10;99.90;;;;;;5073999;28;20106;-50
2024/03/11 06:44:28;;;;;;;8.82;5.57;;;6.20;99.90;;;;;;5072111;28;20036;-46
2024/03/11 06:47:08;;;;;;;8.48;5.80;;;6.20;99.90;;;;;;5063725;28;20095;-46
2024/03/11 06:49:36;;;;;;;8.02;5.63;;;6.30;99.90;;;;;;5070903;28;20032;-51
2024/03/11 06:52:06;;;;;;;16.70;8.93;;;6.30;99.90;;;;;;5075482;28;20056;-52
2024/03/11 06:54:33;;;;;;;8.52;5.45;;;6.40;99.90;;;;;;5075767;28;20045;-48
2024/03/11 06:57:00;;;;;;;6.55;5.00;;;6.40;99.90;;;;;;5079473;28;20051;-49
2024/03/11 06:59:31;;;;;;;9.82;6.45;;;6.40;99.90;;;;;;5074602;28;20053;-48
2024/03/11 07:01:58;;;;;;;6.75;4.65;;;6.60;99.90;;;;;;5073076;28;20045;-49
2024/03/11 07:04:25;;;;;;;7.97;5.43;;;6.70;99.90;;;;;;5075743;28;20042;-49
2024/03/11 07:06:53;;;;;;;9.27;6.53;;;6.70;99.90;;;;;;5070398;28;20500;-46
2024/03/11 07:09:19;;;;;;;6.82;4.95;;;6.70;99.90;;;;;;5070337;28;20336;-46
2024/03/11 07:11:47;;;;;;;6.75;5.28;;;6.70;99.90;;;;;;5069642;28;20093;-47
2024/03/11 07:14:14;;;;;;;8.30;5.38;;;6.70;99.90;;;;;;5069499;28;20044;-50
2024/03/11 07:16:42;;;;;;;6.60;4.80;;;6.60;99.90;;;;;;5074975;28;20048;-53
2024/03/11 07:19:10;;;;;;;7.50;5.50;;;6.60;99.90;;;;;;5074081;28;20028;-53
2024/03/11 07:21:38;;;;;;;12.02;5.03;;;6.70;99.90;;;;;;5074693;28;20143;-48
2024/03/11 07:24:06;;;;;;;8.32;5.90;;;6.70;99.90;;;;;;5073538;28;20057;-46
2024/03/11 07:26:33;;;;;;;9.23;5.63;;;6.70;99.90;;;;;;5075740;28;20044;-49
2024/03/11 07:29:00;;;;;;;7.63;5.32;;;6.80;99.90;;;;;;5076265;28;20040;-54
2024/03/11 07:31:27;;;;;;;8.45;5.65;;;6.90;99.90;;;;;;5075359;28;20044;-46
2024/03/11 07:33:54;;;;;;;9.98;5.88;;;6.90;99.90;;;;;;5075210;28;20056;-47
2024/03/11 07:36:21;;;;;;;9.32;5.93;;;7.10;99.90;;;;;;5075918;28;20147;-50
2024/03/11 07:38:49;;;;;;;10.15;6.03;;;7.20;99.90;;;;;;5066286;28;20032;-49
2024/03/11 07:41:16;;;;;;;7.53;5.25;;;7.20;99.90;;;;;;5071182;28;20049;-51
2024/03/11 07:43:43;;;;;;;9.82;6.10;;;7.30;99.90;;;;;;5067032;28;20033;-49
2024/03/11 07:46:11;;;;;;;9.50;6.03;;;7.40;99.90;;;;;;5067656;28;20368;-47
2024/03/11 07:48:41;;;;;;;6.35;4.60;;;7.50;99.90;;;;;;5067915;28;20045;-45
2024/03/11 07:51:09;;;;;;;6.50;4.90;;;7.60;99.90;;;;;;5070060;28;20055;-49
2024/03/11 07:53:36;;;;;;;6.65;4.90;;;7.70;99.90;;;;;;5076182;28;20041;-49
2024/03/11 07:56:04;;;;;;;9.60;5.30;;;7.70;99.90;;;;;;5079167;28;20056;-50
2024/03/11 07:58:34;;;;;;;6.10;4.90;;;7.70;99.90;;;;;;5071693;28;20464;-47
2024/03/11 08:01:02;;;;;;;7.35;4.90;;;7.80;99.90;;;;;;5076596;28;20553;-51
2024/03/11 08:03:29;;;;;;;7.82;5.05;;;7.80;99.90;;;;;;5077460;28;20062;-47
2024/03/11 08:05:58;;;;;;;10.13;5.30;;;7.90;99.90;;;;;;5074426;28;20708;-47
2024/03/11 08:08:26;;;;;;;7.45;5.57;;;7.90;99.90;;;;;;5072792;28;20037;-53
2024/03/11 08:10:53;;;;;;;8.63;5.63;;;8.00;99.90;;;;;;5075474;28;20040;-49
2024/03/11 08:13:21;;;;;;;8.13;5.07;;;8.00;99.90;;;;;;5074584;28;20513;-48
2024/03/11 08:15:48;;;;;;;7.35;5.10;;;8.10;99.90;;;;;;5068439;28;20102;-48
2024/03/11 08:18:16;;;;;;;11.30;5.35;;;8.10;99.90;;;;;;5068379;28;20063;-49
2024/03/11 08:20:43;;;;;;;7.30;4.57;;;8.30;99.90;;;;;;5073493;28;20044;-51
2024/03/11 08:23:11;;;;;;;8.65;5.07;;;8.30;99.90;;;;;;5074413;28;20075;-50
2024/03/11 08:25:44;;;;;;;9.88;4.50;;;8.30;99.90;;;;;;5068807;28;20060;-52
2024/03/11 08:28:14;;;;;;;9.57;5.15;;;8.40;99.90;;;;;;5075808;28;20036;-47
2024/03/11 08:30:43;;;;;;;6.75;4.30;;;8.40;99.90;;;;;;5073958;28;20048;-45
2024/03/11 08:33:12;;;;;;;12.27;4.80;;;8.60;99.90;;;;;;5073967;28;20079;-52
2024/03/11 08:35:44;;;;;;;8.43;4.65;;;8.70;99.90;;;;;;5074715;28;20156;-50
2024/03/11 08:38:11;;;;;;;5.53;4.07;;;8.80;99.90;;;;;;5062477;28;20405;-51
2024/03/11 08:40:38;;;;;;;4.78;4.03;;;8.90;99.90;;;;;;5072571;28;20398;-51
2024/03/11 08:43:05;;;;;;;5.00;3.63;;;9.00;99.90;;;;;;5077717;28;20127;-48
2024/03/11 08:45:34;;;;;;;5.10;3.30;;;9.20;99.90;;;;;;5064089;28;20032;-53
2024/03/11 08:48:01;;;;;;;4.28;3.33;;;9.30;99.90;;;;;;5074388;28;20035;-51
2024/03/11 08:50:28;;;;;;;5.60;3.15;;;9.40;99.90;;;;;;5070110;28;20579;-50
2024/03/11 08:52:55;;;;;;;7.70;3.70;;;9.40;99.90;;;;;;5074570;28;20124;-46
2024/03/11 08:55:22;;;;;;;5.47;3.20;;;9.60;99.90;;;;;;5072376;28;20412;-45
2024/03/11 08:57:49;;;;;;;4.90;3.22;;;9.60;99.90;;;;;;5071903;28;20056;-52
2024/03/11 09:00:17;;;;;;;5.65;3.50;;;9.70;99.90;;;;;;5069846;28;20055;-55
2024/03/11 09:02:45;;;;;;;9.15;3.65;;;9.80;99.90;;;;;;5070077;28;20531;-51
2024/03/11 09:05:17;;;;;;;5.85;3.70;;;9.90;99.90;;;;;;5070031;28;20523;-51
2024/03/11 09:07:45;;;;;;;5.30;3.70;;;10.00;99.90;;;;;;5066763;28;20049;-49
2024/03/11 09:10:14;;;;;;;5.38;2.97;;;10.10;99.90;;;;;;5070023;28;20302;-46
2024/03/11 09:12:42;;;;;;;6.75;3.08;;;10.20;99.90;;;;;;5072376;28;20048;-47
2024/03/11 09:15:17;;;;;;;5.18;3.60;;;10.20;99.90;;;;;;5071155;28;20109;-53
2024/03/11 09:17:50;;;;;;;6.15;3.35;;;10.20;99.90;;;;;;5074959;28;20044;-47
2024/03/11 09:20:21;;;;;;;4.78;3.20;;;10.10;99.90;;;;;;5070477;28;20044;-55
2024/03/11 09:22:50;;;;;;;4.88;3.63;;;10.30;99.90;;;;;;5072500;28;20044;-52
2024/03/11 09:25:23;;;;;;;4.85;3.70;;;10.50;99.90;;;;;;5074087;28;20531;-51
2024/03/11 09:27:53;;;;;;;4.63;3.20;;;10.70;99.90;;;;;;5070051;28;20398;-49
2024/03/11 09:30:21;;;;;;;4.22;3.30;;;10.60;99.90;;;;;;5069370;28;20522;-49
2024/03/11 09:32:49;;;;;;;5.15;3.60;;;10.70;99.90;;;;;;5063510;28;20055;-53
2024/03/11 09:35:17;;;;;;;3.53;2.90;;;10.70;99.90;;;;;;5065337;28;20140;-47
2024/03/11 09:37:52;;;;;;;4.30;3.08;;;10.80;99.90;;;;;;5066649;28;20052;-45
2024/03/11 09:40:23;;;;;;;5.63;3.40;;;11.10;99.90;;;;;;5067560;28;20036;-46
2024/03/11 09:42:54;;;;;;;4.45;3.80;;;11.20;99.90;;;;;;5066684;28;20112;-49
2024/03/11 09:45:26;;;;;;;6.53;4.45;;;11.30;99.90;;;;;;5066565;28;20435;-53
2024/03/11 09:47:57;;;;;;;4.03;3.33;;;11.60;99.90;;;;;;5076533;28;20052;-48
2024/03/11 09:50:32;;;;;;;5.40;3.50;;;11.80;99.90;;;;;;5067511;28;20044;-54
2024/03/11 09:53:06;;;;;;;4.25;3.50;;;11.90;99.90;;;;;;5073085;28;20064;-47
2024/03/11 09:55:35;;;;;;;4.13;3.42;;;12.00;99.90;;;;;;5064947;28;20154;-51
2024/03/11 09:58:11;;;;;;;3.92;3.50;;;12.00;99.90;;;;;;5066413;28;20051;-50
2024/03/11 10:00:50;;;;;;;5.25;3.58;;;12.20;99.90;;;;;;5070413;28;20068;-52
2024/03/11 10:03:27;;;;;;;4.97;2.95;;;12.10;99.90;;;;;;5074355;28;20068;-48
2024/03/11 10:05:59;;;;;;;5.13;3.20;;;11.90;99.90;;;;;;5073711;28;20072;-47
2024/03/11 10:08:30;;;;;;;4.18;3.53;;;12.00;99.90;;;;;;5057084;28;20071;-50
2024/03/11 10:11:20;;;;;;;5.18;3.70;;;12.10;99.90;;;;;;5071338;28;20055;-54
2024/03/11 10:13:52;;;;;;;4.22;3.47;;;11.90;99.90;;;;;;5072207;28;20040;-49
2024/03/11 10:16:27;;;;;;;4.55;3.78;;;11.90;99.90;;;;;;5068210;28;20105;-47
2024/03/11 10:19:00;;;;;;;4.63;3.63;;;12.10;99.90;;;;;;5070907;28;20494;-52
2024/03/11 10:21:31;;;;;;;3.95;3.40;;;12.00;99.90;;;;;;5069989;28;20047;-48
2024/03/11 10:23:59;;;;;;;4.53;3.63;;;12.10;99.90;;;;;;5067947;28;20067;-49
2024/03/11 10:26:30;;;;;;;5.03;3.47;;;12.10;99.90;;;;;;5069395;28;20094;-53
2024/03/11 10:28:57;;;;;;;4.68;3.70;;;12.20;99.90;;;;;;5071991;28;20098;-46
2024/03/11 10:31:31;;;;;;;4.32;3.70;;;12.20;99.90;;;;;;5075133;28;20475;-49
2024/03/11 10:34:12;;;;;;;4.57;3.40;;;11.90;99.90;;;;;;5075103;28;20390;-49
2024/03/11 10:36:44;;;;;;;3.75;3.38;;;12.00;99.90;;;;;;5071204;28;20132;-51
2024/03/11 10:41:46;;;;;;;6.05;3.63;;;12.10;99.90;;;;;;5074833;28;20044;-50
2024/03/11 10:44:18;;;;;;;4.15;3.67;;;12.10;99.90;;;;;;5076138;28;20059;-46
2024/03/11 10:46:45;;;;;;;4.65;3.65;;;12.20;99.90;;;;;;5071531;28;20131;-50
2024/03/11 10:49:12;;;;;;;3.60;3.30;;;12.30;99.90;;;;;;5069516;28;20470;-55
2024/03/11 10:51:49;;;;;;;4.28;3.60;;;12.40;99.90;;;;;;5063056;28;20052;-46
2024/03/11 10:54:22;;;;;;;4.20;3.50;;;12.40;99.90;;;;;;5075289;28;20047;-48
2024/03/11 10:56:55;;;;;;;4.72;3.63;;;12.30;99.90;;;;;;5072845;28;20052;-51
2024/03/11 10:59:23;;;;;;;5.55;3.92;;;12.60;99.90;;;;;;5071226;28;20133;-49
2024/03/11 11:01:57;;;;;;;4.88;3.72;;;12.60;99.90;;;;;;5076738;28;20076;-49
2024/03/11 11:04:34;;;;;;;4.43;3.53;;;12.80;99.90;;;;;;5073913;28;20055;-51
2024/03/11 11:07:03;;;;;;;3.83;3.50;;;13.10;99.90;;;;;;5076643;28;20562;-47
2024/03/11 11:09:31;;;;;;;4.32;3.67;;;13.50;99.90;;;;;;5071273;28;20037;-46
2024/03/11 11:12:03;;;;;;;3.90;3.45;;;13.60;99.90;;;;;;5071096;28;20072;-45
2024/03/11 11:14:33;;;;;;;5.95;4.50;;;13.60;99.90;;;;;;5074214;28;20048;-53
2024/03/11 11:17:02;;;;;;;5.47;4.07;;;13.70;99.90;;;;;;5070136;28;20362;-53
2024/03/11 11:19:32;;;;;;;5.07;4.00;;;13.70;99.90;;;;;;5071663;28;20447;-49
2024/03/11 11:22:07;;;;;;;4.55;4.07;;;13.90;99.90;;;;;;5072887;28;20556;-45
2024/03/11 11:24:40;;;;;;;5.50;3.88;;;14.00;99.90;;;;;;5069494;28;20044;-49
2024/03/11 11:27:13;;;;;;;3.90;3.50;;;14.10;99.90;;;;;;5073073;28;20068;-55
2024/03/11 11:29:46;;;;;;;4.90;4.00;;;14.50;99.90;;;;;;5066514;28;20041;-54
2024/03/11 11:32:13;;;;;;;3.90;3.50;;;14.60;99.90;;;;;;5075517;28;20040;-49
2024/03/11 11:34:46;;;;;;;4.38;3.92;;;14.80;99.90;;;;;;5076081;28;20049;-51
2024/03/11 11:37:34;;;;;;;4.88;4.18;;;15.50;99.90;;;;;;5067711;28;20132;-49
2024/03/11 11:40:25;;;;;;;5.22;4.72;;;16.00;99.90;;;;;;5074446;28;20043;-49
2024/03/11 11:42:52;;;;;;;4.20;3.80;;;16.40;99.90;;;;;;5077254;28;20045;-50
2024/03/11 11:45:47;;;;;;;4.97;4.15;;;16.60;99.90;;;;;;5072069;28;20416;-56
2024/03/11 11:48:26;;;;;;;4.43;4.03;;;16.80;99.90;;;;;;5071681;28;20032;-47
2024/03/11 11:50:58;;;;;;;5.65;4.47;;;16.90;99.90;;;;;;5069710;28;20033;-47
2024/03/11 11:53:30;;;;;;;7.43;5.07;;;16.40;99.90;;;;;;5069232;28;20044;-49
2024/03/11 11:55:58;;;;;;;;;;;16.20;99.90;;;;;;5077841;28;20588;-49
2024/03/11 11:58:25;;;;;;;4.70;4.30;;;16.40;99.90;;;;;;5068329;28;19920;-51
2024/03/11 12:01:01;;;;;;;5.47;4.30;;;16.00;99.90;;;;;;5074568;28;20059;-51
2024/03/11 12:03:34;;;;;;;4.35;3.95;;;15.40;99.90;;;;;;5069756;28;20781;-48
2024/03/11 12:06:09;;;;;;;8.52;4.93;;;15.10;99.90;;;;;;5067016;28;20089;-48
2024/03/11 12:08:36;;;;;;;6.38;5.05;;;14.90;99.90;;;;;;5076341;28;20567;-48
2024/03/11 12:11:15;;;;;;;4.80;4.40;;;14.80;99.90;;;;;;5071977;28;20064;-52
2024/03/11 12:13:43;;;;;;;4.63;4.22;;;14.70;99.90;;;;;;5068538;28;20165;-47
2024/03/11 12:16:19;;;;;;;6.47;4.53;;;14.70;99.90;;;;;;5068180;28;20040;-47
2024/03/11 12:19:01;;;;;;;4.85;4.22;;;14.80;99.90;;;;;;5066682;28;20124;-50
2024/03/11 12:21:29;;;;;;;5.75;4.43;;;14.90;99.90;;;;;;5075895;28;20108;-52
2024/03/11 12:23:57;;;;;;;5.90;4.85;;;14.70;99.90;;;;;;5071631;28;20073;-48
2024/03/11 12:26:27;;;;;;;5.00;4.50;;;14.60;99.90;;;;;;5077124;28;20170;-46
2024/03/11 12:29:02;;;;;;;4.55;4.10;;;14.80;99.90;;;;;;5075446;28;20634;-48
2024/03/11 12:31:33;;;;;;;4.97;4.32;;;14.80;99.90;;;;;;5068874;28;20053;-51
2024/03/11 12:34:06;;;;;;;4.75;4.35;;;15.00;99.90;;;;;;5073409;28;20083;-51
2024/03/11 12:36:39;;;;;;;4.60;4.20;;;15.00;99.90;;;;;;5068985;28;20040;-48
2024/03/11 12:39:21;;;;;;;5.07;4.47;;;15.10;99.90;;;;;;5070401;28;20142;-47
2024/03/11 12:41:48;;;;;;;4.60;4.20;;;15.20;99.90;;;;;;5073586;28;20063;-55
2024/03/11 12:44:18;;;;;;;6.50;4.20;;;15.10;99.90;;;;;;5073182;28;20044;-44
2024/03/11 12:46:53;;;;;;;5.72;4.43;;;15.30;99.90;;;;;;5070261;28;20051;-50
2024/03/11 12:49:22;;;;;;;4.85;4.20;;;16.30;99.90;;;;;;5067654;28;20086;-50
2024/03/11 12:52:00;;;;;;;4.75;4.25;;;16.90;99.90;;;;;;5071645;28;20051;-56
2024/03/11 12:54:28;;;;;;;4.82;4.30;;;16.30;99.90;;;;;;5071060;28;20067;-48
2024/03/11 12:57:28;;;;;;;4.75;4.35;;;17.00;99.90;;;;;;5076142;28;20057;-58
2024/03/11 13:00:00;;;;;;;4.60;4.20;;;18.60;99.90;;;;;;5068626;28;20827;-48
2024/03/11 13:02:27;;;;;;;;;;;20.20;96.40;;;;;;5068943;28;20044;-48
2024/03/11 13:05:08;;;;;;;4.75;4.35;;;21.30;91.30;;;;;;5073637;28;19920;-45
2024/03/11 13:07:36;;;;;;;5.05;4.65;;;21.80;85.20;;;;;;5069578;28;20037;-49